sensor_id;sensor_type;location;lat;lon;timestamp;pressure;altitude;pressure_sealevel;temperature;humidity
25526;BME280;13424;48.424;11.258;2023-01-26T00:02:24;95991.69;;;2.36;76.99
25526;BME280;13424;48.424;11.258;2023-01-26T00:04:50;95984.19;;;2.48;78.77
25526;BME280;13424;48.424;11.258;2023-01-26T00:07:16;95991.13;;;2.64;78.19
25526;BME280;13424;48.424;11.258;2023-01-26T00:09:42;95989.47;;;3.07;75.91
25526;BME280;13424;48.424;11.258;2023-01-26T00:12:07;95988.66;;;3.06;75.83
25526;BME280;13424;48.424;11.258;2023-01-26T00:14:33;95990.66;;;3.04;75.60
25526;BME280;13424;48.424;11.258;2023-01-26T00:17:18;95987.09;;;3.27;74.85
25526;BME280;13424;48.424;11.258;2023-01-26T00:19:55;95983.47;;;2.84;76.64
25526;BME280;13424;48.424;11.258;2023-01-26T00:22:22;95980.84;;;2.98;76.45
25526;BME280;13424;48.424;11.258;2023-01-26T00:24:48;95972.50;;;2.80;77.01
25526;BME280;13424;48.424;11.258;2023-01-26T00:27:14;95972.78;;;2.85;77.10
25526;BME280;13424;48.424;11.258;2023-01-26T00:29:40;95970.97;;;3.00;76.62
25526;BME280;13424;48.424;11.258;2023-01-26T00:32:05;95966.41;;;2.94;76.70
25526;BME280;13424;48.424;11.258;2023-01-26T00:34:31;95965.72;;;3.22;75.95
25526;BME280;13424;48.424;11.258;2023-01-26T00:36:57;95971.56;;;3.17;76.41
25526;BME280;13424;48.424;11.258;2023-01-26T00:39:54;95959.13;;;3.11;76.91
25526;BME280;13424;48.424;11.258;2023-01-26T00:42:22;95960.63;;;3.35;75.97
25526;BME280;13424;48.424;11.258;2023-01-26T00:44:49;95955.72;;;3.32;75.70
25526;BME280;13424;48.424;11.258;2023-01-26T00:47:16;95954.53;;;3.34;75.41
25526;BME280;13424;48.424;11.258;2023-01-26T00:53:23;95955.75;;;3.17;75.69
25526;BME280;13424;48.424;11.258;2023-01-26T00:55:48;95948.13;;;3.07;75.41
25526;BME280;13424;48.424;11.258;2023-01-26T00:58:14;95951.97;;;3.41;75.35
25526;BME280;13424;48.424;11.258;2023-01-26T01:00:40;95950.22;;;3.48;74.53
25526;BME280;13424;48.424;11.258;2023-01-26T01:03:06;95947.00;;;3.53;74.62
25526;BME280;13424;48.424;11.258;2023-01-26T01:05:32;95944.03;;;3.05;76.14
25526;BME280;13424;48.424;11.258;2023-01-26T01:07:58;95945.91;;;3.26;75.36
25526;BME280;13424;48.424;11.258;2023-01-26T01:10:25;95935.56;;;3.46;74.88
25526;BME280;13424;48.424;11.258;2023-01-26T01:12:52;95936.16;;;3.41;75.11
25526;BME280;13424;48.424;11.258;2023-01-26T01:15:18;95948.06;;;3.37;75.98
25526;BME280;13424;48.424;11.258;2023-01-26T01:17:51;95935.72;;;3.59;75.24
25526;BME280;13424;48.424;11.258;2023-01-26T01:20:16;95942.78;;;3.37;75.60
25526;BME280;13424;48.424;11.258;2023-01-26T01:22:42;95939.03;;;3.46;75.33
25526;BME280;13424;48.424;11.258;2023-01-26T01:25:08;95933.41;;;3.49;74.96
25526;BME280;13424;48.424;11.258;2023-01-26T01:27:34;95932.38;;;3.50;75.36
25526;BME280;13424;48.424;11.258;2023-01-26T01:30:00;95940.97;;;3.01;77.19
25526;BME280;13424;48.424;11.258;2023-01-26T01:32:26;95939.22;;;3.08;76.55
25526;BME280;13424;48.424;11.258;2023-01-26T01:34:52;95928.59;;;3.38;75.37
25526;BME280;13424;48.424;11.258;2023-01-26T01:37:17;95923.72;;;3.35;75.47
25526;BME280;13424;48.424;11.258;2023-01-26T01:39:43;95924.25;;;2.94;76.50
25526;BME280;13424;48.424;11.258;2023-01-26T01:42:09;95924.03;;;3.11;76.86
25526;BME280;13424;48.424;11.258;2023-01-26T01:44:36;95924.59;;;2.91;77.72
25526;BME280;13424;48.424;11.258;2023-01-26T01:47:15;95921.66;;;3.16;77.64
25526;BME280;13424;48.424;11.258;2023-01-26T01:49:46;95924.94;;;3.18;76.81
25526;BME280;13424;48.424;11.258;2023-01-26T01:52:43;95921.09;;;3.20;76.90
25526;BME280;13424;48.424;11.258;2023-01-26T01:55:11;95912.69;;;3.10;76.86
25526;BME280;13424;48.424;11.258;2023-01-26T01:57:46;95916.81;;;3.34;76.43
25526;BME280;13424;48.424;11.258;2023-01-26T02:00:21;95919.75;;;3.24;76.50
25526;BME280;13424;48.424;11.258;2023-01-26T02:02:57;95905.63;;;2.96;77.49
25526;BME280;13424;48.424;11.258;2023-01-26T02:06:07;95908.53;;;2.86;77.42
25526;BME280;13424;48.424;11.258;2023-01-26T02:08:53;95897.91;;;2.94;77.75
25526;BME280;13424;48.424;11.258;2023-01-26T02:11:33;95892.03;;;2.63;78.37
25526;BME280;13424;48.424;11.258;2023-01-26T02:14:07;95895.94;;;3.18;77.22
25526;BME280;13424;48.424;11.258;2023-01-26T02:16:34;95889.84;;;3.17;77.15
25526;BME280;13424;48.424;11.258;2023-01-26T02:19:00;95893.97;;;3.41;75.62
25526;BME280;13424;48.424;11.258;2023-01-26T02:21:26;95888.63;;;3.34;75.51
25526;BME280;13424;48.424;11.258;2023-01-26T02:24:05;95885.81;;;3.21;76.62
25526;BME280;13424;48.424;11.258;2023-01-26T02:26:36;95879.47;;;2.94;76.83
25526;BME280;13424;48.424;11.258;2023-01-26T02:29:05;95872.88;;;2.54;78.40
25526;BME280;13424;48.424;11.258;2023-01-26T02:31:34;95876.25;;;2.99;76.29
25526;BME280;13424;48.424;11.258;2023-01-26T02:34:00;95873.97;;;3.11;75.82
25526;BME280;13424;48.424;11.258;2023-01-26T02:36:29;95859.19;;;2.95;76.69
25526;BME280;13424;48.424;11.258;2023-01-26T02:41:56;95860.59;;;3.12;75.57
25526;BME280;13424;48.424;11.258;2023-01-26T02:44:41;95862.28;;;3.20;75.66
25526;BME280;13424;48.424;11.258;2023-01-26T02:47:16;95857.16;;;2.61;77.20
25526;BME280;13424;48.424;11.258;2023-01-26T02:49:44;95863.25;;;2.46;78.03
25526;BME280;13424;48.424;11.258;2023-01-26T02:52:22;95855.63;;;3.02;76.10
25526;BME280;13424;48.424;11.258;2023-01-26T02:54:54;95851.13;;;2.82;76.07
25526;BME280;13424;48.424;11.258;2023-01-26T02:57:39;95851.22;;;2.73;77.54
25526;BME280;13424;48.424;11.258;2023-01-26T03:00:33;95844.72;;;2.69;76.83
25526;BME280;13424;48.424;11.258;2023-01-26T03:03:08;95840.81;;;2.65;77.96
25526;BME280;13424;48.424;11.258;2023-01-26T03:05:36;95851.00;;;2.24;78.69
25526;BME280;13424;48.424;11.258;2023-01-26T03:08:02;95834.72;;;2.65;76.95
25526;BME280;13424;48.424;11.258;2023-01-26T03:10:36;95840.31;;;3.13;75.29
25526;BME280;13424;48.424;11.258;2023-01-26T03:13:02;95838.81;;;3.03;74.89
25526;BME280;13424;48.424;11.258;2023-01-26T03:15:28;95839.50;;;3.12;74.48
25526;BME280;13424;48.424;11.258;2023-01-26T03:18:18;95842.09;;;3.27;73.23
25526;BME280;13424;48.424;11.258;2023-01-26T03:21:10;95850.13;;;3.19;73.64
25526;BME280;13424;48.424;11.258;2023-01-26T03:23:55;95842.16;;;3.33;73.35
25526;BME280;13424;48.424;11.258;2023-01-26T03:26:41;95849.13;;;3.41;72.96
25526;BME280;13424;48.424;11.258;2023-01-26T03:29:27;95841.34;;;3.33;73.54
25526;BME280;13424;48.424;11.258;2023-01-26T03:35:43;95830.13;;;2.88;75.10
25526;BME280;13424;48.424;11.258;2023-01-26T03:38:09;95828.66;;;3.22;74.18
25526;BME280;13424;48.424;11.258;2023-01-26T03:40:42;95829.38;;;3.16;74.38
25526;BME280;13424;48.424;11.258;2023-01-26T03:43:26;95835.78;;;2.85;75.98
25526;BME280;13424;48.424;11.258;2023-01-26T03:46:13;95827.03;;;2.48;75.88
25526;BME280;13424;48.424;11.258;2023-01-26T03:48:57;95825.06;;;2.87;75.59
25526;BME280;13424;48.424;11.258;2023-01-26T03:51:42;95820.94;;;2.84;75.79
25526;BME280;13424;48.424;11.258;2023-01-26T03:54:26;95809.50;;;2.56;76.26
25526;BME280;13424;48.424;11.258;2023-01-26T03:57:11;95807.84;;;2.69;75.92
25526;BME280;13424;48.424;11.258;2023-01-26T03:59:37;95815.47;;;3.00;75.85
25526;BME280;13424;48.424;11.258;2023-01-26T04:02:11;95810.94;;;2.58;76.41
25526;BME280;13424;48.424;11.258;2023-01-26T04:04:56;95808.69;;;2.76;76.19
25526;BME280;13424;48.424;11.258;2023-01-26T04:07:45;95807.78;;;2.84;75.76
25526;BME280;13424;48.424;11.258;2023-01-26T04:10:29;95812.53;;;2.74;76.17
25526;BME280;13424;48.424;11.258;2023-01-26T04:12:56;95801.41;;;3.15;75.18
25526;BME280;13424;48.424;11.258;2023-01-26T04:15:47;95800.84;;;2.98;73.62
25526;BME280;13424;48.424;11.258;2023-01-26T04:18:32;95809.84;;;3.25;73.64
25526;BME280;13424;48.424;11.258;2023-01-26T04:21:17;95808.94;;;3.18;71.92
25526;BME280;13424;48.424;11.258;2023-01-26T04:23:54;95815.28;;;3.23;73.33
25526;BME280;13424;48.424;11.258;2023-01-26T04:26:24;95812.16;;;3.34;72.89
25526;BME280;13424;48.424;11.258;2023-01-26T04:28:51;95811.19;;;2.99;74.83
25526;BME280;13424;48.424;11.258;2023-01-26T04:31:17;95816.44;;;2.99;73.76
25526;BME280;13424;48.424;11.258;2023-01-26T04:33:46;95803.94;;;3.01;74.17
25526;BME280;13424;48.424;11.258;2023-01-26T04:36:21;95806.50;;;3.16;73.68
25526;BME280;13424;48.424;11.258;2023-01-26T04:38:50;95806.69;;;3.15;74.28
25526;BME280;13424;48.424;11.258;2023-01-26T04:41:18;95805.94;;;3.21;73.49
25526;BME280;13424;48.424;11.258;2023-01-26T04:43:49;95805.66;;;3.16;74.00
25526;BME280;13424;48.424;11.258;2023-01-26T04:46:15;95813.22;;;3.19;74.27
25526;BME280;13424;48.424;11.258;2023-01-26T04:48:42;95811.59;;;3.18;74.01
25526;BME280;13424;48.424;11.258;2023-01-26T04:51:14;95804.03;;;3.15;73.82
25526;BME280;13424;48.424;11.258;2023-01-26T04:53:41;95802.41;;;3.14;74.70
25526;BME280;13424;48.424;11.258;2023-01-26T04:56:12;95810.53;;;3.33;73.67
25526;BME280;13424;48.424;11.258;2023-01-26T04:58:39;95813.69;;;3.07;74.46
25526;BME280;13424;48.424;11.258;2023-01-26T05:01:05;95812.56;;;2.95;74.10
25526;BME280;13424;48.424;11.258;2023-01-26T05:03:31;95815.91;;;3.04;73.54
25526;BME280;13424;48.424;11.258;2023-01-26T05:05:57;95815.72;;;3.05;73.46
25526;BME280;13424;48.424;11.258;2023-01-26T05:08:24;95813.97;;;3.13;74.24
25526;BME280;13424;48.424;11.258;2023-01-26T05:10:50;95820.44;;;2.74;75.00
25526;BME280;13424;48.424;11.258;2023-01-26T05:13:21;95812.53;;;2.38;74.93
25526;BME280;13424;48.424;11.258;2023-01-26T05:16:03;95809.25;;;2.21;76.30
25526;BME280;13424;48.424;11.258;2023-01-26T05:18:47;95805.63;;;2.22;76.39
25526;BME280;13424;48.424;11.258;2023-01-26T05:21:27;95815.25;;;2.15;75.52
25526;BME280;13424;48.424;11.258;2023-01-26T05:23:54;95808.41;;;2.20;76.01
25526;BME280;13424;48.424;11.258;2023-01-26T05:26:40;95809.50;;;2.26;75.68
25526;BME280;13424;48.424;11.258;2023-01-26T05:29:11;95813.78;;;2.27;75.21
25526;BME280;13424;48.424;11.258;2023-01-26T05:31:39;95814.88;;;2.47;75.16
25526;BME280;13424;48.424;11.258;2023-01-26T05:34:05;95814.53;;;2.72;74.80
25526;BME280;13424;48.424;11.258;2023-01-26T05:36:33;95806.47;;;2.59;75.49
25526;BME280;13424;48.424;11.258;2023-01-26T05:38:59;95815.59;;;2.41;76.27
25526;BME280;13424;48.424;11.258;2023-01-26T05:41:26;95810.78;;;2.45;75.57
25526;BME280;13424;48.424;11.258;2023-01-26T05:44:08;95814.78;;;2.11;74.86
25526;BME280;13424;48.424;11.258;2023-01-26T05:46:39;95819.22;;;2.11;76.13
25526;BME280;13424;48.424;11.258;2023-01-26T05:49:05;95816.22;;;2.29;74.99
25526;BME280;13424;48.424;11.258;2023-01-26T05:51:31;95815.28;;;2.51;74.56
25526;BME280;13424;48.424;11.258;2023-01-26T05:53:57;95806.69;;;2.93;73.47
25526;BME280;13424;48.424;11.258;2023-01-26T05:56:23;95807.63;;;2.86;72.38
25526;BME280;13424;48.424;11.258;2023-01-26T05:58:54;95810.50;;;2.55;73.61
25526;BME280;13424;48.424;11.258;2023-01-26T06:01:23;95811.53;;;2.24;73.60
25526;BME280;13424;48.424;11.258;2023-01-26T06:03:55;95809.25;;;2.87;73.25
25526;BME280;13424;48.424;11.258;2023-01-26T06:06:22;95815.47;;;3.00;72.34
25526;BME280;13424;48.424;11.258;2023-01-26T06:08:59;95816.16;;;2.73;72.90
25526;BME280;13424;48.424;11.258;2023-01-26T06:11:32;95819.94;;;2.49;74.36
25526;BME280;13424;48.424;11.258;2023-01-26T06:14:14;95822.91;;;3.40;70.32
25526;BME280;13424;48.424;11.258;2023-01-26T06:16:40;95825.00;;;3.44;69.63
25526;BME280;13424;48.424;11.258;2023-01-26T06:19:10;95819.38;;;3.26;69.59
25526;BME280;13424;48.424;11.258;2023-01-26T06:21:37;95819.03;;;2.57;73.08
25526;BME280;13424;48.424;11.258;2023-01-26T06:24:03;95819.03;;;2.57;73.73
25526;BME280;13424;48.424;11.258;2023-01-26T06:26:29;95822.34;;;2.80;72.88
25526;BME280;13424;48.424;11.258;2023-01-26T06:28:56;95815.00;;;2.97;71.28
25526;BME280;13424;48.424;11.258;2023-01-26T06:31:25;95808.41;;;3.07;71.14
25526;BME280;13424;48.424;11.258;2023-01-26T06:33:55;95809.84;;;3.25;70.94
25526;BME280;13424;48.424;11.258;2023-01-26T06:36:21;95811.19;;;3.21;71.20
25526;BME280;13424;48.424;11.258;2023-01-26T06:38:49;95809.50;;;3.13;72.00
25526;BME280;13424;48.424;11.258;2023-01-26T06:41:18;95809.81;;;3.03;72.51
25526;BME280;13424;48.424;11.258;2023-01-26T06:43:46;95813.34;;;3.32;72.58
25526;BME280;13424;48.424;11.258;2023-01-26T06:46:14;95804.91;;;3.43;71.61
25526;BME280;13424;48.424;11.258;2023-01-26T06:48:40;95814.91;;;3.26;71.80
25526;BME280;13424;48.424;11.258;2023-01-26T06:53:55;95813.59;;;3.37;72.08
25526;BME280;13424;48.424;11.258;2023-01-26T06:56:44;95811.44;;;3.47;71.71
25526;BME280;13424;48.424;11.258;2023-01-26T06:59:29;95810.19;;;3.43;72.01
25526;BME280;13424;48.424;11.258;2023-01-26T07:02:23;95812.97;;;3.35;71.96
25526;BME280;13424;48.424;11.258;2023-01-26T07:04:49;95807.31;;;3.17;72.54
25526;BME280;13424;48.424;11.258;2023-01-26T07:07:15;95809.94;;;3.38;71.70
25526;BME280;13424;48.424;11.258;2023-01-26T07:09:41;95810.06;;;3.30;71.91
25526;BME280;13424;48.424;11.258;2023-01-26T07:12:07;95812.22;;;3.41;71.61
25526;BME280;13424;48.424;11.258;2023-01-26T07:14:34;95818.09;;;3.43;71.38
25526;BME280;13424;48.424;11.258;2023-01-26T07:16:59;95814.16;;;3.32;70.95
25526;BME280;13424;48.424;11.258;2023-01-26T07:19:26;95804.34;;;3.48;70.41
25526;BME280;13424;48.424;11.258;2023-01-26T07:21:54;95802.84;;;2.96;72.70
25526;BME280;13424;48.424;11.258;2023-01-26T07:24:20;95801.34;;;3.29;72.08
25526;BME280;13424;48.424;11.258;2023-01-26T07:26:46;95798.34;;;3.32;71.33
25526;BME280;13424;48.424;11.258;2023-01-26T07:29:12;95800.41;;;3.37;71.30
25526;BME280;13424;48.424;11.258;2023-01-26T07:31:37;95801.25;;;2.80;72.14
25526;BME280;13424;48.424;11.258;2023-01-26T07:34:11;95797.66;;;3.02;71.38
25526;BME280;13424;48.424;11.258;2023-01-26T07:36:40;95795.19;;;3.22;70.66
25526;BME280;13424;48.424;11.258;2023-01-26T07:39:07;95795.56;;;2.98;71.35
25526;BME280;13424;48.424;11.258;2023-01-26T07:41:33;95785.63;;;3.64;68.96
25526;BME280;13424;48.424;11.258;2023-01-26T07:43:59;95795.47;;;3.55;69.42
25526;BME280;13424;48.424;11.258;2023-01-26T07:46:31;95796.25;;;3.06;70.29
25526;BME280;13424;48.424;11.258;2023-01-26T07:48:59;95789.97;;;3.07;71.11
25526;BME280;13424;48.424;11.258;2023-01-26T07:51:25;95789.03;;;3.36;70.44
25526;BME280;13424;48.424;11.258;2023-01-26T07:53:51;95784.69;;;3.50;69.99
25526;BME280;13424;48.424;11.258;2023-01-26T07:56:17;95790.31;;;3.47;70.27
25526;BME280;13424;48.424;11.258;2023-01-26T07:58:53;95786.19;;;3.38;70.50
25526;BME280;13424;48.424;11.258;2023-01-26T08:01:19;95788.63;;;3.40;71.10
25526;BME280;13424;48.424;11.258;2023-01-26T08:03:49;95784.25;;;3.47;70.89
25526;BME280;13424;48.424;11.258;2023-01-26T08:06:16;95783.69;;;3.30;70.77
25526;BME280;13424;48.424;11.258;2023-01-26T08:08:44;95782.50;;;3.82;69.46
25526;BME280;13424;48.424;11.258;2023-01-26T08:11:10;95781.13;;;3.15;72.06
25526;BME280;13424;48.424;11.258;2023-01-26T08:13:36;95786.31;;;3.51;72.00
25526;BME280;13424;48.424;11.258;2023-01-26T08:16:06;95790.09;;;3.21;73.18
25526;BME280;13424;48.424;11.258;2023-01-26T08:18:41;95781.09;;;3.08;73.42
25526;BME280;13424;48.424;11.258;2023-01-26T08:21:09;95780.94;;;3.38;72.23
25526;BME280;13424;48.424;11.258;2023-01-26T08:23:35;95782.25;;;3.06;73.53
25526;BME280;13424;48.424;11.258;2023-01-26T08:26:02;95778.25;;;3.10;72.89
25526;BME280;13424;48.424;11.258;2023-01-26T08:28:29;95775.44;;;3.12;72.56
25526;BME280;13424;48.424;11.258;2023-01-26T08:30:55;95775.91;;;3.22;72.27
25526;BME280;13424;48.424;11.258;2023-01-26T08:33:23;95763.59;;;3.50;71.61
25526;BME280;13424;48.424;11.258;2023-01-26T08:35:49;95775.81;;;3.58;71.33
25526;BME280;13424;48.424;11.258;2023-01-26T08:38:14;95781.69;;;3.81;70.75
25526;BME280;13424;48.424;11.258;2023-01-26T08:40:40;95774.56;;;3.54;70.38
25526;BME280;13424;48.424;11.258;2023-01-26T08:43:06;95777.22;;;3.82;69.33
25526;BME280;13424;48.424;11.258;2023-01-26T08:45:32;95784.50;;;3.80;68.19
25526;BME280;13424;48.424;11.258;2023-01-26T08:47:58;95784.78;;;3.14;71.73
25526;BME280;13424;48.424;11.258;2023-01-26T08:50:24;95780.94;;;3.38;70.68
25526;BME280;13424;48.424;11.258;2023-01-26T08:52:50;95771.72;;;2.85;72.27
25526;BME280;13424;48.424;11.258;2023-01-26T08:55:16;95773.28;;;2.79;73.77
25526;BME280;13424;48.424;11.258;2023-01-26T09:01:48;95774.91;;;2.80;71.65
25526;BME280;13424;48.424;11.258;2023-01-26T09:04:17;95778.00;;;3.48;70.94
25526;BME280;13424;48.424;11.258;2023-01-26T09:06:42;95780.66;;;3.54;70.19
25526;BME280;13424;48.424;11.258;2023-01-26T09:09:50;95783.06;;;3.49;69.96
25526;BME280;13424;48.424;11.258;2023-01-26T09:12:15;95775.78;;;3.30;70.46
25526;BME280;13424;48.424;11.258;2023-01-26T09:14:41;95783.72;;;3.86;69.88
25526;BME280;13424;48.424;11.258;2023-01-26T09:17:07;95779.63;;;3.55;71.26
25526;BME280;13424;48.424;11.258;2023-01-26T09:19:33;95791.88;;;3.91;70.53
25526;BME280;13424;48.424;11.258;2023-01-26T09:22:05;95793.16;;;3.95;69.88
25526;BME280;13424;48.424;11.258;2023-01-26T09:24:30;95788.69;;;3.96;70.86
25526;BME280;13424;48.424;11.258;2023-01-26T09:26:59;95786.13;;;3.81;69.78
25526;BME280;13424;48.424;11.258;2023-01-26T09:29:32;95780.41;;;3.77;70.28
25526;BME280;13424;48.424;11.258;2023-01-26T09:31:57;95785.75;;;3.84;69.32
25526;BME280;13424;48.424;11.258;2023-01-26T09:34:23;95779.19;;;3.73;70.16
25526;BME280;13424;48.424;11.258;2023-01-26T09:36:50;95782.34;;;3.62;69.83
25526;BME280;13424;48.424;11.258;2023-01-26T09:39:16;95775.47;;;3.68;70.63
25526;BME280;13424;48.424;11.258;2023-01-26T09:42:14;95782.38;;;3.69;69.63
25526;BME280;13424;48.424;11.258;2023-01-26T09:47:54;95787.91;;;3.74;69.61
25526;BME280;13424;48.424;11.258;2023-01-26T09:50:32;95783.97;;;3.63;70.18
25526;BME280;13424;48.424;11.258;2023-01-26T09:53:14;95790.06;;;3.63;70.62
25526;BME280;13424;48.424;11.258;2023-01-26T09:55:41;95793.22;;;3.52;70.37
25526;BME280;13424;48.424;11.258;2023-01-26T09:58:32;95785.56;;;3.57;70.81
25526;BME280;13424;48.424;11.258;2023-01-26T10:01:01;95786.72;;;3.05;79.04
25526;BME280;13424;48.424;11.258;2023-01-26T10:03:46;95787.19;;;3.58;70.58
25526;BME280;13424;48.424;11.258;2023-01-26T10:06:23;95784.00;;;3.70;70.65
25526;BME280;13424;48.424;11.258;2023-01-26T10:11:49;95779.13;;;3.67;69.84
25526;BME280;13424;48.424;11.258;2023-01-26T10:18:34;95769.41;;;3.18;77.69
25526;BME280;13424;48.424;11.258;2023-01-26T10:21:58;95777.72;;;3.43;71.89
25526;BME280;13424;48.424;11.258;2023-01-26T10:24:25;95771.94;;;3.82;70.54
25526;BME280;13424;48.424;11.258;2023-01-26T10:26:54;95779.56;;;3.98;68.93
25526;BME280;13424;48.424;11.258;2023-01-26T10:29:22;95781.44;;;3.48;72.92
25526;BME280;13424;48.424;11.258;2023-01-26T10:36:29;95767.13;;;3.92;67.70
25526;BME280;13424;48.424;11.258;2023-01-26T10:39:06;95766.56;;;3.69;68.75
25526;BME280;13424;48.424;11.258;2023-01-26T10:41:33;95759.56;;;3.54;69.05
25526;BME280;13424;48.424;11.258;2023-01-26T10:46:42;95755.66;;;3.22;70.42
25526;BME280;13424;48.424;11.258;2023-01-26T10:51:38;95757.16;;;3.59;69.38
25526;BME280;13424;48.424;11.258;2023-01-26T10:54:26;95758.06;;;3.17;71.00
25526;BME280;13424;48.424;11.258;2023-01-26T10:56:57;95749.13;;;2.75;71.71
25526;BME280;13424;48.424;11.258;2023-01-26T10:59:34;95752.31;;;3.14;72.05
25526;BME280;13424;48.424;11.258;2023-01-26T11:07:45;95751.19;;;3.72;67.95
25526;BME280;13424;48.424;11.258;2023-01-26T11:10:29;95755.38;;;3.67;68.96
25526;BME280;13424;48.424;11.258;2023-01-26T11:13:19;95753.69;;;3.31;69.06
25526;BME280;13424;48.424;11.258;2023-01-26T11:16:16;95756.69;;;3.49;69.13
25526;BME280;13424;48.424;11.258;2023-01-26T11:19:06;95750.16;;;3.45;69.67
25526;BME280;13424;48.424;11.258;2023-01-26T11:21:44;95752.00;;;3.23;71.41
25526;BME280;13424;48.424;11.258;2023-01-26T11:30:51;95753.56;;;2.54;71.91
25526;BME280;13424;48.424;11.258;2023-01-26T11:33:41;95751.09;;;3.10;70.08
25526;BME280;13424;48.424;11.258;2023-01-26T11:48:43;95740.13;;;3.34;70.72
25526;BME280;13424;48.424;11.258;2023-01-26T11:51:46;95732.16;;;3.55;70.36
25526;BME280;13424;48.424;11.258;2023-01-26T11:54:37;95740.28;;;3.26;71.33
25526;BME280;13424;48.424;11.258;2023-01-26T11:57:23;95733.25;;;3.33;72.02
25526;BME280;13424;48.424;11.258;2023-01-26T11:59:59;95732.31;;;3.47;71.08
25526;BME280;13424;48.424;11.258;2023-01-26T12:02:36;95725.50;;;3.59;70.98
25526;BME280;13424;48.424;11.258;2023-01-26T12:05:23;95721.09;;;3.67;71.26
25526;BME280;13424;48.424;11.258;2023-01-26T12:10:47;95712.41;;;3.73;71.20
25526;BME280;13424;48.424;11.258;2023-01-26T12:13:27;95712.38;;;3.66;71.37
25526;BME280;13424;48.424;11.258;2023-01-26T12:16:03;95706.97;;;3.81;70.19
25526;BME280;13424;48.424;11.258;2023-01-26T12:18:56;95710.31;;;3.33;71.83
25526;BME280;13424;48.424;11.258;2023-01-26T12:21:29;95700.97;;;3.31;71.66
25526;BME280;13424;48.424;11.258;2023-01-26T12:24:02;95699.59;;;3.70;71.11
25526;BME280;13424;48.424;11.258;2023-01-26T12:32:50;95688.56;;;3.25;71.72
25526;BME280;13424;48.424;11.258;2023-01-26T12:35:36;95686.41;;;3.70;69.69
25526;BME280;13424;48.424;11.258;2023-01-26T12:38:28;95689.84;;;3.63;70.03
25526;BME280;13424;48.424;11.258;2023-01-26T12:41:15;95684.53;;;3.57;70.26
25526;BME280;13424;48.424;11.258;2023-01-26T12:44:21;95682.50;;;3.03;71.16
25526;BME280;13424;48.424;11.258;2023-01-26T12:47:04;95683.16;;;3.33;70.83
25526;BME280;13424;48.424;11.258;2023-01-26T12:50:04;95681.56;;;4.14;69.15
25526;BME280;13424;48.424;11.258;2023-01-26T12:58:10;95684.16;;;3.67;70.09
25526;BME280;13424;48.424;11.258;2023-01-26T13:00:37;95667.28;;;4.02;68.43
25526;BME280;13424;48.424;11.258;2023-01-26T13:03:16;95678.16;;;3.86;69.33
25526;BME280;13424;48.424;11.258;2023-01-26T13:11:06;95673.84;;;3.72;70.74
25526;BME280;13424;48.424;11.258;2023-01-26T13:13:55;95668.78;;;3.77;70.58
25526;BME280;13424;48.424;11.258;2023-01-26T13:18:55;95672.44;;;3.76;69.96
25526;BME280;13424;48.424;11.258;2023-01-26T13:25:30;95665.13;;;3.78;71.57
25526;BME280;13424;48.424;11.258;2023-01-26T13:27:59;95675.25;;;3.68;71.57
25526;BME280;13424;48.424;11.258;2023-01-26T13:30:41;95667.47;;;4.01;68.84
25526;BME280;13424;48.424;11.258;2023-01-26T13:33:21;95669.28;;;3.93;69.44
25526;BME280;13424;48.424;11.258;2023-01-26T13:35:50;95667.16;;;3.76;71.36
25526;BME280;13424;48.424;11.258;2023-01-26T13:38:38;95671.44;;;3.42;71.79
25526;BME280;13424;48.424;11.258;2023-01-26T13:41:15;95666.75;;;3.79;69.57
25526;BME280;13424;48.424;11.258;2023-01-26T13:43:48;95673.16;;;3.56;70.80
25526;BME280;13424;48.424;11.258;2023-01-26T13:48:51;95670.88;;;3.19;72.51
25526;BME280;13424;48.424;11.258;2023-01-26T13:51:27;95674.06;;;3.77;70.42
25526;BME280;13424;48.424;11.258;2023-01-26T13:54:12;95671.22;;;3.09;71.61
25526;BME280;13424;48.424;11.258;2023-01-26T13:57:05;95671.78;;;3.67;70.28
25526;BME280;13424;48.424;11.258;2023-01-26T13:59:31;95666.63;;;3.52;70.13
25526;BME280;13424;48.424;11.258;2023-01-26T14:01:58;95668.34;;;3.67;69.54
25526;BME280;13424;48.424;11.258;2023-01-26T14:04:29;95667.19;;;3.82;68.03
25526;BME280;13424;48.424;11.258;2023-01-26T14:07:38;95665.19;;;3.84;68.45
25526;BME280;13424;48.424;11.258;2023-01-26T14:10:16;95666.00;;;3.85;68.29
25526;BME280;13424;48.424;11.258;2023-01-26T14:12:51;95670.81;;;3.75;68.04
25526;BME280;13424;48.424;11.258;2023-01-26T14:15:31;95667.97;;;3.14;69.95
25526;BME280;13424;48.424;11.258;2023-01-26T14:18:04;95675.97;;;3.55;69.97
25526;BME280;13424;48.424;11.258;2023-01-26T14:20:36;95671.91;;;3.52;69.60
25526;BME280;13424;48.424;11.258;2023-01-26T14:23:16;95671.09;;;3.52;70.17
25526;BME280;13424;48.424;11.258;2023-01-26T14:25:55;95674.69;;;3.44;71.77
25526;BME280;13424;48.424;11.258;2023-01-26T14:28:33;95665.78;;;3.86;69.02
25526;BME280;13424;48.424;11.258;2023-01-26T14:31:14;95666.72;;;3.66;69.37
25526;BME280;13424;48.424;11.258;2023-01-26T14:33:41;95661.03;;;3.69;67.71
25526;BME280;13424;48.424;11.258;2023-01-26T14:36:16;95666.72;;;3.66;67.80
25526;BME280;13424;48.424;11.258;2023-01-26T14:38:46;95661.44;;;3.66;67.89
25526;BME280;13424;48.424;11.258;2023-01-26T14:41:27;95657.63;;;3.75;68.63
25526;BME280;13424;48.424;11.258;2023-01-26T14:43:56;95670.94;;;4.01;67.83
25526;BME280;13424;48.424;11.258;2023-01-26T14:46:34;95664.00;;;3.93;68.26
25526;BME280;13424;48.424;11.258;2023-01-26T14:49:14;95670.28;;;3.51;69.04
25526;BME280;13424;48.424;11.258;2023-01-26T14:51:43;95665.09;;;3.64;70.32
25526;BME280;13424;48.424;11.258;2023-01-26T14:54:17;95672.56;;;3.61;69.99
25526;BME280;13424;48.424;11.258;2023-01-26T14:56:48;95668.03;;;2.71;73.42
25526;BME280;13424;48.424;11.258;2023-01-26T14:59:24;95677.06;;;3.32;71.05
25526;BME280;13424;48.424;11.258;2023-01-26T15:02:00;95679.09;;;3.37;71.14
25526;BME280;13424;48.424;11.258;2023-01-26T15:04:36;95676.56;;;3.50;70.97